Arni Fridriksson — TFNA — position and weather

sailwx.info

Track history (hours):
 
Tides and Currents Weather Stations Pressure Air Temp Water Temp Dewpoint Dewpoint Depression Visibility Wind Speed Wind Dir Waves Ship Positions

Oceanographic research ship Arni Fridriksson (Iceland)

Detailed information on ship capabilities available from University of Delaware's Ocean Information Center.

Last reported at 2019-Sep-22 00:00 UTC. Time now 2019-Sep-22 01:39 UTC.
Position N 67°54' E 000°24'.

Type: Fishing. MMSI: 251507000.

Wind from 100 at 23 knots

Barometer 1016.8 mb
Air temperature 9.2 ° C
Visibility: greater than 10.8 NM
Water temperature 10.1 ° C

Date/timePositionNaut miles runAvg speedWind from/ knotsBaromVisibWave heightAir tempDewpointWater temp
2019-Sep-22 00:00N 67°54' E 000°24'3712.2 100 / 231016.810.8 9.2 10.1
2019-Sep-21 21:00N 68°00' E 002°00'4715.6 110 / 211017.610.8 8.4 10.0
2019-Sep-21 18:00N 68°24' E 003°48'13911.6 100 / 161017.710.8 7.7 9.8
2019-Sep-21 06:00N 69°06' E 009°54'3 8.1 360 / 161012.510.8 6.6 9.6
2019-Sep-21 05:36N 69°07' E 010°03'110.3
2019-Sep-21 05:29N 69°07' E 010°06'510.5
2019-Sep-21 05:00N 69°08' E 010°20'510.8
2019-Sep-21 04:30N 69°10' E 010°34'511.0
2019-Sep-21 04:00N 69°11' E 010°49'510.9
2019-Sep-21 03:30N 69°12' E 011°04'510.7
2019-Sep-21 03:00N 69°14' E 011°19'3911.4
2019-Sep-21 03:00N 69°12' E 011°24'4 8.8 360 / 171011.110.8 6.7 9.3
2019-Sep-21 02:30N 69°15' E 011°33'510.1
2019-Sep-21 02:00N 69°16' E 011°47'5 9.9
2019-Sep-21 01:30N 69°17' E 012°00'5 9.9
2019-Sep-21 01:00N 69°18' E 012°14'5 9.9
2019-Sep-21 00:30N 69°19' E 012°28'5 9.8
2019-Sep-21 00:00N 69°20' E 012°41'2802.6
2019-Sep-21 00:00N 69°18' E 012°42'611.6 350 / 191010.010.8 6.9 10.4
2019-Sep-20 23:30N 69°22' E 012°55'5 9.9
2019-Sep-20 23:00N 69°23' E 013°09'5 9.9
2019-Sep-20 22:30N 69°24' E 013°23'510.0
2019-Sep-20 22:00N 69°25' E 013°37'510.1
2019-Sep-20 21:30N 69°26' E 013°50'510.3
2019-Sep-20 21:00N 69°27' E 014°05'3214.6
2019-Sep-20 21:00N 69°24' E 014°00'815.6 340 / 101009.010.8 7.2 10.2
2019-Sep-20 20:30N 69°27' E 014°19'510.4
2019-Sep-20 20:00N 69°28' E 014°34'510.4
2019-Sep-20 19:31N 69°29' E 014°48'510.6
2019-Sep-20 19:00N 69°30' E 015°04'510.4
2019-Sep-20 18:30N 69°31' E 015°18'510.2
2019-Sep-20 18:00N 69°32' E 015°33'510.1
2019-Sep-20 17:30N 69°33' E 015°47'5 9.9
2019-Sep-20 17:00N 69°34' E 016°01'510.2
2019-Sep-20 16:30N 69°35' E 016°15'510.6
2019-Sep-20 16:00N 69°36' E 016°30'510.8
2019-Sep-20 15:30N 69°37' E 016°46'510.1
2019-Sep-20 15:01N 69°37' E 016°60'510.3
2019-Sep-20 14:30N 69°38' E 017°14'510.2
2019-Sep-20 14:00N 69°39' E 017°29'510.3
2019-Sep-20 13:30N 69°40' E 017°44'5 9.4
2019-Sep-20 13:00N 69°36' E 017°53'510.2
2019-Sep-20 12:30N 69°32' E 018°02'510.0
2019-Sep-20 12:00N 69°30' E 018°15'5 9.9
2019-Sep-20 11:30N 69°32' E 018°29'510.1
2019-Sep-20 11:00N 69°33' E 018°43'5 9.8
2019-Sep-20 10:30N 69°36' E 018°54'5 9.4
2019-Sep-20 10:00N 69°41' E 018°59'0 0.1
2019-Sep-20 09:31N 69°41' E 018°59'0 0.0
2019-Sep-20 09:00N 69°41' E 018°59'0 0.0
2019-Sep-20 08:31N 69°41' E 018°59'0 0.0
2019-Sep-20 08:00N 69°41' E 018°59'0 0.0
2019-Sep-20 07:31N 69°41' E 018°59'0 0.0
2019-Sep-20 07:00N 69°41' E 018°59'0 0.0
2019-Sep-20 06:30N 69°41' E 018°59'0 0.0
2019-Sep-20 06:00N 69°41' E 018°59'0 0.0
2019-Sep-20 05:30N 69°41' E 018°59'0 0.0
2019-Sep-20 05:00N 69°41' E 018°59'0 0.0
2019-Sep-20 04:30N 69°41' E 018°59'0 0.0
2019-Sep-20 04:00N 69°41' E 018°59'0 0.0
2019-Sep-20 03:30N 69°41' E 018°59'0 0.0
2019-Sep-20 03:01N 69°41' E 018°59'0 0.0
2019-Sep-20 02:30N 69°41' E 018°59'0 0.0
2019-Sep-20 02:01N 69°41' E 018°59'0 0.0
2019-Sep-20 01:31N 69°41' E 018°59'0 0.0
2019-Sep-20 01:00N 69°41' E 018°59'0 0.0
2019-Sep-20 00:31N 69°41' E 018°59'0 0.0
2019-Sep-20 00:00N 69°41' E 018°59'0 0.0
2019-Sep-19 23:30N 69°41' E 018°59'0 0.0
2019-Sep-19 23:00N 69°41' E 018°59'0 0.0
2019-Sep-19 22:30N 69°41' E 018°59'0 0.0
2019-Sep-19 22:00N 69°41' E 018°59'0 0.0
2019-Sep-19 21:30N 69°41' E 018°59'0 0.0
2019-Sep-19 21:00N 69°41' E 018°59'0 0.0
2019-Sep-19 20:31N 69°41' E 018°59'0 0.0
2019-Sep-19 20:01N 69°41' E 018°59'0 0.0
2019-Sep-19 19:31N 69°41' E 018°59'0 0.0
2019-Sep-19 19:00N 69°41' E 018°59'0 0.0
2019-Sep-19 18:30N 69°41' E 018°59'0 0.0
2019-Sep-19 18:01N 69°41' E 018°59'0 0.0
2019-Sep-19 17:30N 69°41' E 018°59'0 0.0
2019-Sep-19 17:00N 69°41' E 018°59'0 0.0
2019-Sep-19 16:31N 69°41' E 018°59'0 0.0
2019-Sep-19 16:01N 69°41' E 018°59'0 0.0
2019-Sep-19 15:30N 69°41' E 018°59'0 0.0
2019-Sep-19 15:00N 69°41' E 018°59'0 0.0
2019-Sep-19 14:30N 69°41' E 018°59'0 0.0
2019-Sep-19 14:00N 69°41' E 018°59'0 0.0
2019-Sep-19 13:31N 69°41' E 018°59'0 0.0
2019-Sep-19 13:00N 69°41' E 018°59'0 0.0
2019-Sep-19 12:30N 69°41' E 018°59'0 0.0
2019-Sep-19 12:00N 69°41' E 018°59'0 0.0
2019-Sep-19 11:30N 69°41' E 018°59'0 0.0
2019-Sep-19 11:01N 69°41' E 018°59'0 0.0
2019-Sep-19 10:31N 69°41' E 018°59'0 0.0
2019-Sep-19 10:01N 69°41' E 018°59'0 0.0
2019-Sep-19 09:30N 69°41' E 018°59'0 0.0
2019-Sep-19 09:00N 69°41' E 018°59'0 0.0
2019-Sep-19 08:31N 69°41' E 018°59'0 0.0
2019-Sep-19 08:00N 69°41' E 018°59'0 0.0
2019-Sep-19 07:30N 69°41' E 018°59'0 0.0
2019-Sep-19 07:00N 69°41' E 018°59'0 0.0
2019-Sep-19 06:30N 69°41' E 018°59'0 0.0
2019-Sep-19 06:01N 69°41' E 018°59'0 0.0
2019-Sep-19 05:30N 69°41' E 018°59'2 4.5
2019-Sep-19 05:00N 69°42' E 019°05'0 0.0
2019-Sep-19 04:30N 69°42' E 019°05'0 0.0
2019-Sep-19 04:01N 69°42' E 019°05'0 0.0
2019-Sep-19 03:30N 69°42' E 019°05'0 0.0
2019-Sep-19 03:00N 69°42' E 019°05'0 0.0
2019-Sep-19 02:30N 69°42' E 019°05'0 0.0
2019-Sep-19 02:01N 69°42' E 019°05'0 0.0
2019-Sep-19 01:30N 69°42' E 019°05'0 0.0
2019-Sep-19 01:00N 69°42' E 019°05'1 1.9
2019-Sep-19 00:30N 69°43' E 019°03'5 9.5
2019-Sep-19 00:00N 69°47' E 019°10'510.8
2019-Sep-18 23:30N 69°48' E 019°25'510.8
2019-Sep-18 23:00N 69°50' E 019°39'510.6
2019-Sep-18 22:30N 69°54' E 019°52'611.5
2019-Sep-18 21:59N 69°59' E 019°60'511.1
2019-Sep-18 21:30N 70°03' E 020°08'611.2
2019-Sep-18 21:00N 70°08' E 020°16'611.9
2019-Sep-18 20:30N 70°13' E 020°24'611.9
2019-Sep-18 20:01N 70°19' E 020°32'612.0
2019-Sep-18 19:30N 70°24' E 020°43'611.9
2019-Sep-18 19:00N 70°28' E 020°56'611.6
2019-Sep-18 18:30N 70°30' E 021°11'611.8
2019-Sep-18 18:00N 70°29' E 021°29'2 4.0
2019-Sep-18 17:30N 70°29' E 021°34'4 7.6
2019-Sep-18 17:00N 70°32' E 021°34'611.6
2019-Sep-18 16:30N 70°38' E 021°36'611.0
2019-Sep-18 15:59N 70°44' E 021°39'511.0
2019-Sep-18 15:30N 70°49' E 021°43'611.4
2019-Sep-18 15:00N 70°54' E 021°48'611.4
2019-Sep-18 14:30N 70°60' E 021°54'611.7
2019-Sep-18 14:00N 71°05' E 021°59'611.9
2019-Sep-18 13:30N 71°11' E 022°05'612.1
2019-Sep-18 13:01N 71°17' E 022°11'612.1
2019-Sep-18 12:30N 71°22' E 022°17'611.4
2019-Sep-18 12:00N 71°28' E 022°16'611.8
2019-Sep-18 11:30N 71°34' E 022°12'611.8
2019-Sep-18 11:00N 71°40' E 022°14'611.7
2019-Sep-18 10:31N 71°45' E 022°17'611.6
2019-Sep-18 10:00N 71°51' E 022°20'611.6
2019-Sep-18 09:30N 71°57' E 022°23'811.4
2019-Sep-18 08:51N 72°04' E 022°28'28 9.7
2019-Sep-18 06:00N 72°30' E 023°00'3812.7 010 / 211009.310.8 4.2 8.7
2019-Sep-18 03:00N 73°06' E 023°42'3010.1 020 / 141009.510.8 4.3 8.0
2019-Sep-18 00:00N 73°36' E 024°00'22 3.7 020 / 251010.110.8 3.9 7.6
2019-Sep-17 18:00N 73°36' E 022°42'18 6.1 050 / 211010.710.8 3.3 7.4
2019-Sep-17 15:00N 73°18' E 022°30'14 4.6 040 / 211010.210.8 4.5 7.9
2019-Sep-17 12:00N 73°18' E 021°42'22 7.5 060 / 231009.8 5.4 5.1 7.7
2019-Sep-17 09:00N 73°18' E 020°24'18 6.0 060 / 231009.7 5.4 3.9 7.3
2019-Sep-17 06:00N 73°36' E 020°18'25 8.2 050 / 231008.3 5.4 3.6 6.1
2019-Sep-17 03:00N 73°12' E 020°00'19 6.2 070 / 271007.2 2.2 3.6 6.5
2019-Sep-17 00:00N 72°54' E 019°42'42 7.1 060 / 271005.9 2.2 6.2 8.1
2019-Sep-16 18:00N 73°12' E 017°30'25 4.1 060 / 351006.2 2.2 5.0 7.6
2019-Sep-16 12:00N 72°48' E 017°12'30 5.0 090 / 231002.9 5.4 7.0 9.1
2019-Sep-16 06:00N 73°12' E 016°12'3712.3 040 / 251003.010.8 6.2 8.7
2019-Sep-16 03:00N 73°48' E 015°42'25 8.3 060 / 231004.210.8 6.9 8.8
2019-Sep-16 00:00N 74°12' E 015°18'3110.4 100 / 191004.310.8 7.2 8.5
2019-Sep-15 21:00N 74°42' E 014°48'3110.3 100 / 191003.710.8 7.4 6.7
2019-Sep-15 18:00N 75°12' E 014°18'72 8.0 100 / 171003.310.8 7.2 8.5
2019-Sep-15 09:00N 76°18' E 012°24'2349.9 140 / 19997.310.8 6.0 7.3
2019-Sep-15 08:32N 76°40' E 012°47'0 9.5
2019-Sep-15 08:30N 76°40' E 012°46'5 9.3
2019-Sep-15 08:00N 76°45' E 012°41'5 9.3
2019-Sep-15 07:30N 76°49' E 012°37'5 9.3
2019-Sep-15 07:00N 76°54' E 012°32'5 9.5
2019-Sep-15 06:30N 76°58' E 012°27'5 9.4
2019-Sep-15 06:00N 77°03' E 012°22'5 9.5
2019-Sep-15 05:30N 77°08' E 012°17'5 9.5
2019-Sep-15 05:00N 77°12' E 012°12'5 9.5
2019-Sep-15 04:30N 77°17' E 012°06'5 9.4
2019-Sep-15 04:00N 77°21' E 012°01'5 9.2
2019-Sep-15 03:31N 77°26' E 011°56'5 9.5
2019-Sep-15 03:00N 77°31' E 011°51'2363.9
2019-Sep-15 03:00N 77°30' E 012°00'612.4 110 / 21994.310.8 5.7 6.0
2019-Sep-15 02:30N 77°35' E 011°46'5 9.8
2019-Sep-15 02:00N 77°40' E 011°40'5 9.5
2019-Sep-15 01:30N 77°45' E 011°35'5 9.3
2019-Sep-15 01:00N 77°49' E 011°30'5 9.5
2019-Sep-15 00:31N 77°54' E 011°24'5 9.7
2019-Sep-15 00:00N 77°58' E 011°19'5 9.6
2019-Sep-14 23:30N 78°03' E 011°13'5 9.6
2019-Sep-14 23:00N 78°08' E 011°08'5 9.7
2019-Sep-14 22:30N 78°12' E 011°01'5 9.5
2019-Sep-14 22:00N 78°17' E 010°55'5 8.9
2019-Sep-14 21:30N 78°21' E 010°48'4 9.2
2019-Sep-14 21:01N 78°26' E 010°42'5 9.9
2019-Sep-14 20:29N 78°30' E 010°35'5 9.9
2019-Sep-14 20:00N 78°35' E 010°28'6 9.7
2019-Sep-14 19:26N 78°40' E 010°20'7 9.5
2019-Sep-14 18:44N 78°47' E 010°10'3 8.6
2019-Sep-14 18:21N 78°50' E 010°05'2 6.7
2019-Sep-14 18:00N 78°52' E 010°02'510.1
2019-Sep-14 17:30N 78°57' E 009°54'510.1
2019-Sep-14 17:00N 79°02' E 009°47'5 9.7
2019-Sep-14 16:30N 79°07' E 009°45'510.0
2019-Sep-14 16:00N 79°12' E 009°45'5 9.7
2019-Sep-14 15:30N 79°17' E 009°45'5 9.8
2019-Sep-14 15:00N 79°21' E 009°45'5 9.6
2019-Sep-14 14:30N 79°26' E 009°45'5 9.5
2019-Sep-14 14:00N 79°31' E 009°45'4 7.4
2019-Sep-14 13:30N 79°35' E 009°45'0 0.5
2019-Sep-14 13:00N 79°35' E 009°44'3 6.5
2019-Sep-14 12:31N 79°38' E 009°45'5 9.4
2019-Sep-14 12:00N 79°43' E 009°46'4 9.0
2019-Sep-14 11:30N 79°47' E 009°38'5 9.6
2019-Sep-14 11:01N 79°51' E 009°23'5 9.3
2019-Sep-14 10:30N 79°54' E 009°07'4 2.8
2019-Sep-14 08:56N 79°53' E 008°43'410.1
2019-Sep-14 08:30N 79°49' E 008°44'2 3.5
2019-Sep-14 08:00N 79°47' E 008°46'1 1.7
2019-Sep-14 07:30N 79°46' E 008°47'3 5.2
2019-Sep-14 07:00N 79°45' E 008°35'4 7.6
2019-Sep-14 06:31N 79°42' E 008°21'2 3.7
2019-Sep-14 06:00N 79°42' E 008°11'1 2.4
2019-Sep-14 05:30N 79°41' E 008°12'1 2.9
2019-Sep-14 05:01N 79°39' E 008°13'1 2.5
2019-Sep-14 04:30N 79°39' E 008°06'2 3.9
2019-Sep-14 04:00N 79°38' E 007°57'0 0.3
2019-Sep-14 03:30N 79°38' E 007°56'2 3.9
2019-Sep-14 03:01N 79°36' E 007°58'1 1.8
2019-Sep-14 02:30N 79°37' E 007°58'3 5.7
2019-Sep-14 02:00N 79°35' E 008°05'3 5.5
2019-Sep-14 01:30N 79°32' E 008°12'2 4.3
2019-Sep-14 01:00N 79°31' E 008°22'1 1.3
2019-Sep-14 00:30N 79°30' E 008°19'1 2.6
2019-Sep-14 00:00N 79°29' E 008°15'1 2.1
2019-Sep-13 23:30N 79°29' E 008°10'3 6.7
2019-Sep-13 23:00N 79°27' E 007°54'4 6.3
2019-Sep-13 22:18N 79°24' E 007°34'1 1.7
2019-Sep-13 21:38N 79°25' E 007°29'1 3.0
2019-Sep-13 21:23N 79°24' E 007°30'2 4.6
2019-Sep-13 21:01N 79°23' E 007°31'1 1.5
2019-Sep-13 20:23N 79°23' E 007°33'1 2.2
2019-Sep-13 19:57N 79°23' E 007°36'2 3.2
2019-Sep-13 19:26N 79°21' E 007°40'1 2.3
2019-Sep-13 18:55N 79°21' E 007°47'3 7.1
2019-Sep-13 18:30N 79°18' E 007°45'5 8.7
2019-Sep-13 17:58N 79°14' E 007°38'5 8.3
2019-Sep-13 17:24N 79°09' E 007°30'3 8.3
2019-Sep-13 17:00N 79°06' E 007°24'4 8.1
2019-Sep-13 16:30N 79°03' E 007°41'4 8.5
2019-Sep-13 16:00N 79°01' E 007°59'5 8.5
2019-Sep-13 15:22N 78°58' E 008°22'1 3.9
2019-Sep-13 15:01N 78°59' E 008°24'2 2.5
2019-Sep-13 14:24N 78°58' E 008°24'2 5.3
2019-Sep-13 14:00N 78°56' E 008°26'4 7.5
2019-Sep-13 13:30N 78°52' E 008°28'1 2.6
2019-Sep-13 13:00N 78°51' E 008°29'1 2.6
2019-Sep-13 12:30N 78°51' E 008°22'0 0.2
2019-Sep-13 12:00N 78°51' E 008°22'2 3.1
2019-Sep-13 11:30N 78°49' E 008°20'14 2.6
2019-Sep-13 06:00N 78°36' E 008°42'4 1.8 120 991.610.8 6.7 6.0
2019-Sep-13 03:49N 78°34' E 008°59'3 6.7
2019-Sep-13 03:18N 78°31' E 009°10'310.0
2019-Sep-13 03:01N 78°29' E 009°19'4 8.2
2019-Sep-13 02:30N 78°26' E 009°34'1 1.4
2019-Sep-13 01:30N 78°25' E 009°36'510.2
2019-Sep-13 01:00N 78°21' E 009°18'3 4.9
2019-Sep-13 00:20N 78°18' E 009°18'1 1.8
2019-Sep-13 00:00N 78°18' E 009°21'2 3.0
2019-Sep-12 23:30N 78°16' E 009°20'0 0.4
2019-Sep-12 23:00N 78°16' E 009°19'13 4.5
2019-Sep-12 20:07N 78°03' E 009°19'1 8.2
2019-Sep-12 20:00N 78°03' E 009°23'1 3.0
2019-Sep-12 19:31N 78°02' E 009°27'2 3.7
2019-Sep-12 19:00N 77°60' E 009°31'4 8.2
2019-Sep-12 18:30N 77°57' E 009°44'3 6.5
2019-Sep-12 18:00N 77°54' E 009°37'2 3.2
2019-Sep-12 17:30N 77°55' E 009°33'1 2.9
2019-Sep-12 17:01N 77°54' E 009°37'2 3.5
2019-Sep-12 16:30N 77°54' E 009°29'1 1.9
2019-Sep-12 16:00N 77°54' E 009°26'1 2.9
2019-Sep-12 15:31N 77°53' E 009°30'3 6.1
2019-Sep-12 15:00N 77°51' E 009°41'510.8
2019-Sep-12 14:30N 77°48' E 009°59'510.8
2019-Sep-12 14:01N 77°44' E 010°18'510.6
2019-Sep-12 13:30N 77°40' E 010°32'4 7.3
2019-Sep-12 13:00N 77°36' E 010°40'1 2.5
2019-Sep-12 12:30N 77°35' E 010°43'2 4.9
2019-Sep-12 12:00N 77°34' E 010°53'2 3.1
2019-Sep-12 11:31N 77°35' E 010°48'1 1.7
2019-Sep-12 11:01N 77°36' E 010°46'1 2.6
2019-Sep-12 10:30N 77°35' E 010°50'2 4.1
2019-Sep-12 10:00N 77°33' E 010°53'2 3.4
2019-Sep-12 09:30N 77°34' E 010°47'1 1.2
2019-Sep-12 09:00N 77°34' E 010°49'2388.9
2019-Sep-12 09:00N 77°36' E 010°48'3 7.1 090 / 25990.310.8 7.1 6.5
2019-Sep-12 08:30N 77°33' E 010°54'2 5.1
2019-Sep-12 08:00N 77°31' E 011°03'0 0.4
2019-Sep-12 07:30N 77°31' E 011°02'0 0.2
2019-Sep-12 07:00N 77°31' E 011°02'1 1.0
2019-Sep-12 06:30N 77°31' E 010°60'1 1.1
2019-Sep-12 06:01N 77°32' E 010°57'2101.6
2019-Sep-12 06:00N 77°30' E 011°00'0 0.9 090 / 25992.110.8 6.5 6.6
2019-Sep-12 05:30N 77°30' E 011°00'1 2.0
2019-Sep-12 05:00N 77°30' E 011°02'3 6.2
2019-Sep-12 04:30N 77°29' E 010°48'4 8.2
2019-Sep-12 04:00N 77°25' E 010°41'510.7
2019-Sep-12 03:30N 77°20' E 010°49'510.8
2019-Sep-12 03:00N 77°15' E 010°56'3266.4
2019-Sep-12 03:00N 77°12' E 011°00'1 1.9 080 / 25993.9 1.1 5.0 6.9
2019-Sep-12 02:30N 77°12' E 010°56'4 7.1
2019-Sep-12 02:00N 77°15' E 010°55'1 1.5
2019-Sep-12 01:30N 77°15' E 010°56'1 2.4
2019-Sep-12 01:00N 77°14' E 010°57'4 7.6
2019-Sep-12 00:31N 77°10' E 011°04'2 3.8
2019-Sep-12 00:00N 77°09' E 011°10'  
Track history (hours):
 
Tides and Currents Weather Stations Pressure Air Temp Water Temp Dewpoint Dewpoint Depression Visibility Wind Speed Wind Dir Waves Ship Positions

Oceanographic research ship Arni Fridriksson (Iceland)

Detailed information on ship capabilities available from University of Delaware's Ocean Information Center.

Last reported at 2019-Sep-22 00:00 UTC. Time now 2019-Sep-22 01:39 UTC.
Position N 67°54' E 000°24'.

Type: Fishing. MMSI: 251507000.

Wind from 100 at 23 knots

Barometer 1016.8 mb
Air temperature 9.2 ° C
Visibility: greater than 10.8 NM
Water temperature 10.1 ° C

Date/timePositionNaut miles runAvg speedWind from/ knotsBaromVisibWave heightAir tempDewpointWater temp
2019-Sep-22 00:00N 67°54' E 000°24'3712.2 100 / 231016.810.8 9.2 10.1
2019-Sep-21 21:00N 68°00' E 002°00'4715.6 110 / 211017.610.8 8.4 10.0
2019-Sep-21 18:00N 68°24' E 003°48'13911.6 100 / 161017.710.8 7.7 9.8
2019-Sep-21 06:00N 69°06' E 009°54'3 8.1 360 / 161012.510.8 6.6 9.6
2019-Sep-21 05:36N 69°07' E 010°03'110.3
2019-Sep-21 05:29N 69°07' E 010°06'510.5
2019-Sep-21 05:00N 69°08' E 010°20'510.8
2019-Sep-21 04:30N 69°10' E 010°34'511.0
2019-Sep-21 04:00N 69°11' E 010°49'510.9
2019-Sep-21 03:30N 69°12' E 011°04'510.7
2019-Sep-21 03:00N 69°14' E 011°19'3911.4
2019-Sep-21 03:00N 69°12' E 011°24'4 8.8 360 / 171011.110.8 6.7 9.3
2019-Sep-21 02:30N 69°15' E 011°33'510.1
2019-Sep-21 02:00N 69°16' E 011°47'5 9.9
2019-Sep-21 01:30N 69°17' E 012°00'5 9.9
2019-Sep-21 01:00N 69°18' E 012°14'5 9.9
2019-Sep-21 00:30N 69°19' E 012°28'5 9.8
2019-Sep-21 00:00N 69°20' E 012°41'2802.6
2019-Sep-21 00:00N 69°18' E 012°42'611.6 350 / 191010.010.8 6.9 10.4
2019-Sep-20 23:30N 69°22' E 012°55'5 9.9
2019-Sep-20 23:00N 69°23' E 013°09'5 9.9
2019-Sep-20 22:30N 69°24' E 013°23'510.0
2019-Sep-20 22:00N 69°25' E 013°37'510.1
2019-Sep-20 21:30N 69°26' E 013°50'510.3
2019-Sep-20 21:00N 69°27' E 014°05'3214.6
2019-Sep-20 21:00N 69°24' E 014°00'815.6 340 / 101009.010.8 7.2 10.2
2019-Sep-20 20:30N 69°27' E 014°19'510.4
2019-Sep-20 20:00N 69°28' E 014°34'510.4
2019-Sep-20 19:31N 69°29' E 014°48'510.6
2019-Sep-20 19:00N 69°30' E 015°04'510.4
2019-Sep-20 18:30N 69°31' E 015°18'510.2
2019-Sep-20 18:00N 69°32' E 015°33'510.1
2019-Sep-20 17:30N 69°33' E 015°47'5 9.9
2019-Sep-20 17:00N 69°34' E 016°01'510.2
2019-Sep-20 16:30N 69°35' E 016°15'510.6
2019-Sep-20 16:00N 69°36' E 016°30'510.8
2019-Sep-20 15:30N 69°37' E 016°46'510.1
2019-Sep-20 15:01N 69°37' E 016°60'510.3
2019-Sep-20 14:30N 69°38' E 017°14'510.2
2019-Sep-20 14:00N 69°39' E 017°29'510.3
2019-Sep-20 13:30N 69°40' E 017°44'5 9.4
2019-Sep-20 13:00N 69°36' E 017°53'510.2
2019-Sep-20 12:30N 69°32' E 018°02'510.0
2019-Sep-20 12:00N 69°30' E 018°15'5 9.9
2019-Sep-20 11:30N 69°32' E 018°29'510.1
2019-Sep-20 11:00N 69°33' E 018°43'5 9.8
2019-Sep-20 10:30N 69°36' E 018°54'5 9.4
2019-Sep-20 10:00N 69°41' E 018°59'0 0.1
2019-Sep-20 09:31N 69°41' E 018°59'0 0.0
2019-Sep-20 09:00N 69°41' E 018°59'0 0.0
2019-Sep-20 08:31N 69°41' E 018°59'0 0.0
2019-Sep-20 08:00N 69°41' E 018°59'0 0.0
2019-Sep-20 07:31N 69°41' E 018°59'0 0.0
2019-Sep-20 07:00N 69°41' E 018°59'0 0.0
2019-Sep-20 06:30N 69°41' E 018°59'0 0.0
2019-Sep-20 06:00N 69°41' E 018°59'0 0.0
2019-Sep-20 05:30N 69°41' E 018°59'0 0.0
2019-Sep-20 05:00N 69°41' E 018°59'0 0.0
2019-Sep-20 04:30N 69°41' E 018°59'0 0.0
2019-Sep-20 04:00N 69°41' E 018°59'0 0.0
2019-Sep-20 03:30N 69°41' E 018°59'0 0.0
2019-Sep-20 03:01N 69°41' E 018°59'0 0.0
2019-Sep-20 02:30N 69°41' E 018°59'0 0.0
2019-Sep-20 02:01N 69°41' E 018°59'0 0.0
2019-Sep-20 01:31N 69°41' E 018°59'0 0.0
2019-Sep-20 01:00N 69°41' E 018°59'0 0.0
2019-Sep-20 00:31N 69°41' E 018°59'0 0.0
2019-Sep-20 00:00N 69°41' E 018°59'0 0.0
2019-Sep-19 23:30N 69°41' E 018°59'0 0.0
2019-Sep-19 23:00N 69°41' E 018°59'0 0.0
2019-Sep-19 22:30N 69°41' E 018°59'0 0.0
2019-Sep-19 22:00N 69°41' E 018°59'0 0.0
2019-Sep-19 21:30N 69°41' E 018°59'0 0.0
2019-Sep-19 21:00N 69°41' E 018°59'0 0.0
2019-Sep-19 20:31N 69°41' E 018°59'0 0.0
2019-Sep-19 20:01N 69°41' E 018°59'0 0.0
2019-Sep-19 19:31N 69°41' E 018°59'0 0.0
2019-Sep-19 19:00N 69°41' E 018°59'0 0.0
2019-Sep-19 18:30N 69°41' E 018°59'0 0.0
2019-Sep-19 18:01N 69°41' E 018°59'0 0.0
2019-Sep-19 17:30N 69°41' E 018°59'0 0.0
2019-Sep-19 17:00N 69°41' E 018°59'0 0.0
2019-Sep-19 16:31N 69°41' E 018°59'0 0.0
2019-Sep-19 16:01N 69°41' E 018°59'0 0.0
2019-Sep-19 15:30N 69°41' E 018°59'0 0.0
2019-Sep-19 15:00N 69°41' E 018°59'0 0.0
2019-Sep-19 14:30N 69°41' E 018°59'0 0.0
2019-Sep-19 14:00N 69°41' E 018°59'0 0.0
2019-Sep-19 13:31N 69°41' E 018°59'0 0.0
2019-Sep-19 13:00N 69°41' E 018°59'0 0.0
2019-Sep-19 12:30N 69°41' E 018°59'0 0.0
2019-Sep-19 12:00N 69°41' E 018°59'0 0.0
2019-Sep-19 11:30N 69°41' E 018°59'0 0.0
2019-Sep-19 11:01N 69°41' E 018°59'0 0.0
2019-Sep-19 10:31N 69°41' E 018°59'0 0.0
2019-Sep-19 10:01N 69°41' E 018°59'0 0.0
2019-Sep-19 09:30N 69°41' E 018°59'0 0.0
2019-Sep-19 09:00N 69°41' E 018°59'0 0.0
2019-Sep-19 08:31N 69°41' E 018°59'0 0.0
2019-Sep-19 08:00N 69°41' E 018°59'0 0.0
2019-Sep-19 07:30N 69°41' E 018°59'0 0.0
2019-Sep-19 07:00N 69°41' E 018°59'0 0.0
2019-Sep-19 06:30N 69°41' E 018°59'0 0.0
2019-Sep-19 06:01N 69°41' E 018°59'0 0.0
2019-Sep-19 05:30N 69°41' E 018°59'2 4.5
2019-Sep-19 05:00N 69°42' E 019°05'0 0.0
2019-Sep-19 04:30N 69°42' E 019°05'0 0.0
2019-Sep-19 04:01N 69°42' E 019°05'0 0.0
2019-Sep-19 03:30N 69°42' E 019°05'0 0.0
2019-Sep-19 03:00N 69°42' E 019°05'0 0.0
2019-Sep-19 02:30N 69°42' E 019°05'0 0.0
2019-Sep-19 02:01N 69°42' E 019°05'0 0.0
2019-Sep-19 01:30N 69°42' E 019°05'0 0.0
2019-Sep-19 01:00N 69°42' E 019°05'1 1.9
2019-Sep-19 00:30N 69°43' E 019°03'5 9.5
2019-Sep-19 00:00N 69°47' E 019°10'510.8
2019-Sep-18 23:30N 69°48' E 019°25'510.8
2019-Sep-18 23:00N 69°50' E 019°39'510.6
2019-Sep-18 22:30N 69°54' E 019°52'611.5
2019-Sep-18 21:59N 69°59' E 019°60'511.1
2019-Sep-18 21:30N 70°03' E 020°08'611.2
2019-Sep-18 21:00N 70°08' E 020°16'611.9
2019-Sep-18 20:30N 70°13' E 020°24'611.9
2019-Sep-18 20:01N 70°19' E 020°32'612.0
2019-Sep-18 19:30N 70°24' E 020°43'611.9
2019-Sep-18 19:00N 70°28' E 020°56'611.6
2019-Sep-18 18:30N 70°30' E 021°11'611.8
2019-Sep-18 18:00N 70°29' E 021°29'2 4.0
2019-Sep-18 17:30N 70°29' E 021°34'4 7.6
2019-Sep-18 17:00N 70°32' E 021°34'611.6
2019-Sep-18 16:30N 70°38' E 021°36'611.0
2019-Sep-18 15:59N 70°44' E 021°39'511.0
2019-Sep-18 15:30N 70°49' E 021°43'611.4
2019-Sep-18 15:00N 70°54' E 021°48'611.4
2019-Sep-18 14:30N 70°60' E 021°54'611.7
2019-Sep-18 14:00N 71°05' E 021°59'611.9
2019-Sep-18 13:30N 71°11' E 022°05'612.1
2019-Sep-18 13:01N 71°17' E 022°11'612.1
2019-Sep-18 12:30N 71°22' E 022°17'611.4
2019-Sep-18 12:00N 71°28' E 022°16'611.8
2019-Sep-18 11:30N 71°34' E 022°12'611.8
2019-Sep-18 11:00N 71°40' E 022°14'611.7
2019-Sep-18 10:31N 71°45' E 022°17'611.6
2019-Sep-18 10:00N 71°51' E 022°20'611.6
2019-Sep-18 09:30N 71°57' E 022°23'811.4
2019-Sep-18 08:51N 72°04' E 022°28'28 9.7
2019-Sep-18 06:00N 72°30' E 023°00'3812.7 010 / 211009.310.8 4.2 8.7
2019-Sep-18 03:00N 73°06' E 023°42'3010.1 020 / 141009.510.8 4.3 8.0
2019-Sep-18 00:00N 73°36' E 024°00'22 3.7 020 / 251010.110.8 3.9 7.6
2019-Sep-17 18:00N 73°36' E 022°42'18 6.1 050 / 211010.710.8 3.3 7.4
2019-Sep-17 15:00N 73°18' E 022°30'14 4.6 040 / 211010.210.8 4.5 7.9
2019-Sep-17 12:00N 73°18' E 021°42'22 7.5 060 / 231009.8 5.4 5.1 7.7
2019-Sep-17 09:00N 73°18' E 020°24'18 6.0 060 / 231009.7 5.4 3.9 7.3
2019-Sep-17 06:00N 73°36' E 020°18'25 8.2 050 / 231008.3 5.4 3.6 6.1
2019-Sep-17 03:00N 73°12' E 020°00'19 6.2 070 / 271007.2 2.2 3.6 6.5
2019-Sep-17 00:00N 72°54' E 019°42'42 7.1 060 / 271005.9 2.2 6.2 8.1
2019-Sep-16 18:00N 73°12' E 017°30'25 4.1 060 / 351006.2 2.2 5.0 7.6
2019-Sep-16 12:00N 72°48' E 017°12'30 5.0 090 / 231002.9 5.4 7.0 9.1
2019-Sep-16 06:00N 73°12' E 016°12'3712.3 040 / 251003.010.8 6.2 8.7
2019-Sep-16 03:00N 73°48' E 015°42'25 8.3 060 / 231004.210.8 6.9 8.8
2019-Sep-16 00:00N 74°12' E 015°18'3110.4 100 / 191004.310.8 7.2 8.5
2019-Sep-15 21:00N 74°42' E 014°48'3110.3 100 / 191003.710.8 7.4 6.7
2019-Sep-15 18:00N 75°12' E 014°18'72 8.0 100 / 171003.310.8 7.2 8.5
2019-Sep-15 09:00N 76°18' E 012°24'2349.9 140 / 19997.310.8 6.0 7.3
2019-Sep-15 08:32N 76°40' E 012°47'0 9.5
2019-Sep-15 08:30N 76°40' E 012°46'5 9.3
2019-Sep-15 08:00N 76°45' E 012°41'5 9.3
2019-Sep-15 07:30N 76°49' E 012°37'5 9.3
2019-Sep-15 07:00N 76°54' E 012°32'5 9.5
2019-Sep-15 06:30N 76°58' E 012°27'5 9.4
2019-Sep-15 06:00N 77°03' E 012°22'5 9.5
2019-Sep-15 05:30N 77°08' E 012°17'5 9.5
2019-Sep-15 05:00N 77°12' E 012°12'5 9.5
2019-Sep-15 04:30N 77°17' E 012°06'5 9.4
2019-Sep-15 04:00N 77°21' E 012°01'5 9.2
2019-Sep-15 03:31N 77°26' E 011°56'5 9.5
2019-Sep-15 03:00N 77°31' E 011°51'2363.9
2019-Sep-15 03:00N 77°30' E 012°00'612.4 110 / 21994.310.8 5.7 6.0
2019-Sep-15 02:30N 77°35' E 011°46'5 9.8
2019-Sep-15 02:00N 77°40' E 011°40'5 9.5
2019-Sep-15 01:30N 77°45' E 011°35'5 9.3
2019-Sep-15 01:00N 77°49' E 011°30'5 9.5
2019-Sep-15 00:31N 77°54' E 011°24'5 9.7
2019-Sep-15 00:00N 77°58' E 011°19'5 9.6
2019-Sep-14 23:30N 78°03' E 011°13'5 9.6
2019-Sep-14 23:00N 78°08' E 011°08'5 9.7
2019-Sep-14 22:30N 78°12' E 011°01'5 9.5
2019-Sep-14 22:00N 78°17' E 010°55'5 8.9
2019-Sep-14 21:30N 78°21' E 010°48'4 9.2
2019-Sep-14 21:01N 78°26' E 010°42'5 9.9
2019-Sep-14 20:29N 78°30' E 010°35'5 9.9
2019-Sep-14 20:00N 78°35' E 010°28'6 9.7
2019-Sep-14 19:26N 78°40' E 010°20'7 9.5
2019-Sep-14 18:44N 78°47' E 010°10'3 8.6
2019-Sep-14 18:21N 78°50' E 010°05'2 6.7
2019-Sep-14 18:00N 78°52' E 010°02'510.1
2019-Sep-14 17:30N 78°57' E 009°54'510.1
2019-Sep-14 17:00N 79°02' E 009°47'5 9.7
2019-Sep-14 16:30N 79°07' E 009°45'510.0
2019-Sep-14 16:00N 79°12' E 009°45'5 9.7
2019-Sep-14 15:30N 79°17' E 009°45'5 9.8
2019-Sep-14 15:00N 79°21' E 009°45'5 9.6
2019-Sep-14 14:30N 79°26' E 009°45'5 9.5
2019-Sep-14 14:00N 79°31' E 009°45'4 7.4
2019-Sep-14 13:30N 79°35' E 009°45'0 0.5
2019-Sep-14 13:00N 79°35' E 009°44'3 6.5
2019-Sep-14 12:31N 79°38' E 009°45'5 9.4
2019-Sep-14 12:00N 79°43' E 009°46'4 9.0
2019-Sep-14 11:30N 79°47' E 009°38'5 9.6
2019-Sep-14 11:01N 79°51' E 009°23'5 9.3
2019-Sep-14 10:30N 79°54' E 009°07'4 2.8
2019-Sep-14 08:56N 79°53' E 008°43'410.1
2019-Sep-14 08:30N 79°49' E 008°44'2 3.5
2019-Sep-14 08:00N 79°47' E 008°46'1 1.7
2019-Sep-14 07:30N 79°46' E 008°47'3 5.2
2019-Sep-14 07:00N 79°45' E 008°35'4 7.6
2019-Sep-14 06:31N 79°42' E 008°21'2 3.7
2019-Sep-14 06:00N 79°42' E 008°11'1 2.4
2019-Sep-14 05:30N 79°41' E 008°12'1 2.9
2019-Sep-14 05:01N 79°39' E 008°13'1 2.5
2019-Sep-14 04:30N 79°39' E 008°06'2 3.9
2019-Sep-14 04:00N 79°38' E 007°57'0 0.3
2019-Sep-14 03:30N 79°38' E 007°56'2 3.9
2019-Sep-14 03:01N 79°36' E 007°58'1 1.8
2019-Sep-14 02:30N 79°37' E 007°58'3 5.7
2019-Sep-14 02:00N 79°35' E 008°05'3 5.5
2019-Sep-14 01:30N 79°32' E 008°12'2 4.3
2019-Sep-14 01:00N 79°31' E 008°22'1 1.3
2019-Sep-14 00:30N 79°30' E 008°19'1 2.6
2019-Sep-14 00:00N 79°29' E 008°15'1 2.1
2019-Sep-13 23:30N 79°29' E 008°10'3 6.7
2019-Sep-13 23:00N 79°27' E 007°54'4 6.3
2019-Sep-13 22:18N 79°24' E 007°34'1 1.7
2019-Sep-13 21:38N 79°25' E 007°29'1 3.0
2019-Sep-13 21:23N 79°24' E 007°30'2 4.6
2019-Sep-13 21:01N 79°23' E 007°31'1 1.5
2019-Sep-13 20:23N 79°23' E 007°33'1 2.2
2019-Sep-13 19:57N 79°23' E 007°36'2 3.2
2019-Sep-13 19:26N 79°21' E 007°40'1 2.3
2019-Sep-13 18:55N 79°21' E 007°47'3 7.1
2019-Sep-13 18:30N 79°18' E 007°45'5 8.7
2019-Sep-13 17:58N 79°14' E 007°38'5 8.3
2019-Sep-13 17:24N 79°09' E 007°30'3 8.3
2019-Sep-13 17:00N 79°06' E 007°24'4 8.1
2019-Sep-13 16:30N 79°03' E 007°41'4 8.5
2019-Sep-13 16:00N 79°01' E 007°59'5 8.5
2019-Sep-13 15:22N 78°58' E 008°22'1 3.9
2019-Sep-13 15:01N 78°59' E 008°24'2 2.5
2019-Sep-13 14:24N 78°58' E 008°24'2 5.3
2019-Sep-13 14:00N 78°56' E 008°26'4 7.5
2019-Sep-13 13:30N 78°52' E 008°28'1 2.6
2019-Sep-13 13:00N 78°51' E 008°29'1 2.6
2019-Sep-13 12:30N 78°51' E 008°22'0 0.2
2019-Sep-13 12:00N 78°51' E 008°22'2 3.1
2019-Sep-13 11:30N 78°49' E 008°20'14 2.6
2019-Sep-13 06:00N 78°36' E 008°42'4 1.8 120 991.610.8 6.7 6.0
2019-Sep-13 03:49N 78°34' E 008°59'3 6.7
2019-Sep-13 03:18N 78°31' E 009°10'310.0
2019-Sep-13 03:01N 78°29' E 009°19'4 8.2
2019-Sep-13 02:30N 78°26' E 009°34'1 1.4
2019-Sep-13 01:30N 78°25' E 009°36'510.2
2019-Sep-13 01:00N 78°21' E 009°18'3 4.9
2019-Sep-13 00:20N 78°18' E 009°18'1 1.8
2019-Sep-13 00:00N 78°18' E 009°21'2 3.0
2019-Sep-12 23:30N 78°16' E 009°20'0 0.4
2019-Sep-12 23:00N 78°16' E 009°19'13 4.5
2019-Sep-12 20:07N 78°03' E 009°19'1 8.2
2019-Sep-12 20:00N 78°03' E 009°23'1 3.0
2019-Sep-12 19:31N 78°02' E 009°27'2 3.7
2019-Sep-12 19:00N 77°60' E 009°31'4 8.2
2019-Sep-12 18:30N 77°57' E 009°44'3 6.5
2019-Sep-12 18:00N 77°54' E 009°37'2 3.2
2019-Sep-12 17:30N 77°55' E 009°33'1 2.9
2019-Sep-12 17:01N 77°54' E 009°37'2 3.5
2019-Sep-12 16:30N 77°54' E 009°29'1 1.9
2019-Sep-12 16:00N 77°54' E 009°26'1 2.9
2019-Sep-12 15:31N 77°53' E 009°30'3 6.1
2019-Sep-12 15:00N 77°51' E 009°41'510.8
2019-Sep-12 14:30N 77°48' E 009°59'510.8
2019-Sep-12 14:01N 77°44' E 010°18'510.6
2019-Sep-12 13:30N 77°40' E 010°32'4 7.3
2019-Sep-12 13:00N 77°36' E 010°40'1 2.5
2019-Sep-12 12:30N 77°35' E 010°43'2 4.9
2019-Sep-12 12:00N 77°34' E 010°53'2 3.1
2019-Sep-12 11:31N 77°35' E 010°48'1 1.7
2019-Sep-12 11:01N 77°36' E 010°46'1 2.6
2019-Sep-12 10:30N 77°35' E 010°50'2 4.1
2019-Sep-12 10:00N 77°33' E 010°53'2 3.4
2019-Sep-12 09:30N 77°34' E 010°47'1 1.2
2019-Sep-12 09:00N 77°34' E 010°49'2388.9
2019-Sep-12 09:00N 77°36' E 010°48'3 7.1 090 / 25990.310.8 7.1 6.5
2019-Sep-12 08:30N 77°33' E 010°54'2 5.1
2019-Sep-12 08:00N 77°31' E 011°03'0 0.4
2019-Sep-12 07:30N 77°31' E 011°02'0 0.2
2019-Sep-12 07:00N 77°31' E 011°02'1 1.0
2019-Sep-12 06:30N 77°31' E 010°60'1 1.1
2019-Sep-12 06:01N 77°32' E 010°57'2101.6
2019-Sep-12 06:00N 77°30' E 011°00'0 0.9 090 / 25992.110.8 6.5 6.6
2019-Sep-12 05:30N 77°30' E 011°00'1 2.0
2019-Sep-12 05:00N 77°30' E 011°02'3 6.2
2019-Sep-12 04:30N 77°29' E 010°48'4 8.2
2019-Sep-12 04:00N 77°25' E 010°41'510.7
2019-Sep-12 03:30N 77°20' E 010°49'510.8
2019-Sep-12 03:00N 77°15' E 010°56'3266.4
2019-Sep-12 03:00N 77°12' E 011°00'1 1.9 080 / 25993.9 1.1 5.0 6.9
2019-Sep-12 02:30N 77°12' E 010°56'4 7.1
2019-Sep-12 02:00N 77°15' E 010°55'1 1.5
2019-Sep-12 01:30N 77°15' E 010°56'1 2.4
2019-Sep-12 01:00N 77°14' E 010°57'4 7.6
2019-Sep-12 00:31N 77°10' E 011°04'2 3.8
2019-Sep-12 00:00N 77°09' E 011°10'  

Dump ship's entire track history